Time;durP1;ratioP1;P1;durP2;ratioP2;P2;SDS_P1;SDS_P2;PMS_P1;PMS_P2;Temp;Humidity;BMP_temperature;BMP_pressure;BME280_temperature;BME280_humidity;BME280_pressure;Samples;Min_cycle;Max_cycle;Signal;HPM_P1;HPM_P2
2024/01/13 00:00:11;;;;;;;1008.08;148.15;;;1.20;99.90;;;;;;5033357;28;20411;-74
2024/01/13 00:02:38;;;;;;;1019.63;152.88;;;1.20;99.90;;;;;;5048527;28;20790;-75
2024/01/13 00:05:06;;;;;;;1157.68;170.68;;;1.20;99.90;;;;;;5034091;28;20053;-76
2024/01/13 00:07:32;;;;;;;1031.75;149.02;;;1.20;99.90;;;;;;5030133;28;20063;-74
2024/01/13 00:09:59;;;;;;;980.30;141.73;;;1.20;99.90;;;;;;5029248;28;20048;-75
2024/01/13 00:12:26;;;;;;;1015.40;149.07;;;1.20;99.90;;;;;;5028559;28;20041;-75
2024/01/13 00:14:53;;;;;;;869.78;131.50;;;1.20;99.90;;;;;;5039734;28;21467;-76
2024/01/13 00:17:20;;;;;;;1080.78;156.25;;;1.20;99.90;;;;;;4991216;28;20041;-73
2024/01/13 00:19:47;;;;;;;1159.70;168.48;;;1.20;99.90;;;;;;5011349;28;20128;-74
2024/01/13 00:22:13;;;;;;;1011.13;147.75;;;1.30;99.90;;;;;;5013066;28;20128;-75
2024/01/13 00:24:40;;;;;;;913.70;132.45;;;1.20;99.90;;;;;;5017182;28;20056;-75
2024/01/13 00:27:09;;;;;;;1166.80;173.90;;;1.20;99.90;;;;;;5022880;28;20037;-75
2024/01/13 00:29:37;;;;;;;1081.03;153.77;;;1.20;99.90;;;;;;4997090;28;20123;-76
2024/01/13 00:32:04;;;;;;;996.08;142.15;;;1.20;99.90;;;;;;5028846;28;20055;-73
2024/01/13 00:34:32;;;;;;;1016.13;137.85;;;1.20;99.90;;;;;;5023246;28;20131;-75
2024/01/13 00:37:00;;;;;;;876.40;129.75;;;1.20;99.90;;;;;;5013850;28;20047;-76
2024/01/13 00:39:26;;;;;;;1032.43;149.77;;;1.20;99.90;;;;;;5016403;28;20051;-75
2024/01/13 00:41:53;;;;;;;1079.40;159.90;;;1.20;99.90;;;;;;5039622;28;20139;-73
2024/01/13 00:44:20;;;;;;;814.13;120.30;;;1.20;99.90;;;;;;5025969;28;20053;-75
2024/01/13 00:46:47;;;;;;;824.13;118.85;;;1.20;99.90;;;;;;5023693;28;20052;-74
2024/01/13 00:49:14;;;;;;;804.17;118.68;;;1.20;99.90;;;;;;5009262;28;20531;-75
2024/01/13 00:51:41;;;;;;;649.50;98.43;;;1.20;99.90;;;;;;5007813;28;20048;-73
2024/01/13 00:54:10;;;;;;;1052.35;155.77;;;1.20;99.90;;;;;;5025739;28;20565;-75
2024/01/13 00:56:39;;;;;;;785.70;114.50;;;1.20;99.90;;;;;;5010344;28;20144;-74
2024/01/13 00:59:06;;;;;;;970.97;138.07;;;1.20;99.90;;;;;;5016741;28;20594;-75
2024/01/13 01:01:33;;;;;;;868.25;120.53;;;1.20;99.90;;;;;;5003177;28;20060;-76
2024/01/13 01:04:00;;;;;;;998.75;139.52;;;1.30;99.90;;;;;;5023939;28;20144;-76
2024/01/13 01:06:27;;;;;;;748.47;115.90;;;1.20;99.90;;;;;;5021235;28;20143;-74
2024/01/13 01:08:54;;;;;;;643.10;101.88;;;1.30;99.90;;;;;;5025847;28;20043;-75
2024/01/13 01:11:21;;;;;;;757.15;112.40;;;1.20;99.90;;;;;;5011517;28;20056;-74
2024/01/13 01:13:47;;;;;;;663.88;100.03;;;1.20;99.90;;;;;;5025220;28;21222;-74
2024/01/13 01:16:14;;;;;;;809.45;119.63;;;1.20;99.90;;;;;;5013280;28;20520;-75
2024/01/13 01:18:41;;;;;;;791.88;110.18;;;1.30;99.90;;;;;;5015911;28;20527;-76
2024/01/13 01:21:14;;;;;;;750.03;106.90;;;1.20;99.90;;;;;;5030113;28;20060;-75
2024/01/13 01:23:44;;;;;;;822.80;116.88;;;1.20;99.90;;;;;;5019475;28;20064;-76
2024/01/13 01:26:11;;;;;;;751.97;117.30;;;1.20;99.90;;;;;;5018197;28;20041;-74
2024/01/13 01:28:38;;;;;;;593.35;92.85;;;1.20;99.90;;;;;;5004809;28;20128;-75
2024/01/13 01:31:05;;;;;;;875.88;116.90;;;1.20;99.90;;;;;;5015010;28;20132;-76
2024/01/13 01:33:33;;;;;;;523.53;89.10;;;1.20;99.90;;;;;;5032696;28;20053;-76
2024/01/13 01:36:01;;;;;;;699.97;105.60;;;1.20;99.90;;;;;;5014031;28;20140;-74
2024/01/13 01:38:28;;;;;;;769.65;123.00;;;1.20;99.90;;;;;;5024313;28;20058;-73
2024/01/13 01:41:09;;;;;;;835.17;121.75;;;1.20;99.90;;;;;;5031443;28;20055;-76
2024/01/13 01:43:36;;;;;;;850.50;123.25;;;1.20;99.90;;;;;;5022582;28;20055;-74
2024/01/13 01:46:04;;;;;;;710.72;105.47;;;1.20;99.90;;;;;;5037920;28;20049;-74
2024/01/13 01:48:40;;;;;;;753.75;114.20;;;1.20;99.90;;;;;;5049247;28;20041;-73
2024/01/13 01:51:11;;;;;;;697.00;101.10;;;1.20;99.90;;;;;;5037898;28;20112;-75
2024/01/13 01:53:40;;;;;;;785.40;107.93;;;1.20;99.90;;;;;;4993461;28;20044;-74
2024/01/13 01:56:19;;;;;;;729.53;109.28;;;1.20;99.90;;;;;;5011290;28;20057;-75
2024/01/13 01:58:47;;;;;;;972.80;134.30;;;1.20;99.90;;;;;;5016745;28;20048;-74
2024/01/13 02:01:17;;;;;;;917.58;123.85;;;1.20;99.90;;;;;;5021089;28;20050;-76
2024/01/13 02:03:46;;;;;;;705.30;106.35;;;1.20;99.90;;;;;;5005347;28;20055;-75
2024/01/13 02:06:13;;;;;;;583.92;91.10;;;1.20;99.90;;;;;;5020135;28;20240;-76
2024/01/13 02:08:40;;;;;;;700.40;103.30;;;1.20;99.90;;;;;;5023114;28;20047;-74
2024/01/13 02:11:12;;;;;;;652.50;89.55;;;1.20;99.90;;;;;;5038864;28;20053;-75
2024/01/13 02:13:44;;;;;;;770.15;109.25;;;1.20;99.90;;;;;;5006456;28;20060;-76
2024/01/13 02:16:11;;;;;;;748.85;103.45;;;1.20;99.90;;;;;;5023230;28;20083;-76
2024/01/13 02:18:39;;;;;;;792.13;108.03;;;1.20;99.90;;;;;;5017640;28;20048;-76
2024/01/13 02:21:13;;;;;;;637.17;91.07;;;1.20;99.90;;;;;;5041273;28;20048;-75
2024/01/13 02:23:42;;;;;;;726.22;106.68;;;1.20;99.90;;;;;;4997791;28;20696;-75
2024/01/13 02:26:09;;;;;;;806.13;115.15;;;1.20;99.90;;;;;;4999570;28;20048;-76
2024/01/13 02:28:36;;;;;;;602.13;90.20;;;1.20;99.90;;;;;;5008105;28;20056;-74
2024/01/13 02:31:06;;;;;;;389.48;66.43;;;1.20;99.90;;;;;;5020528;28;20851;-75
2024/01/13 02:33:33;;;;;;;315.27;58.22;;;1.20;99.90;;;;;;5013858;28;20052;-75
2024/01/13 02:36:00;;;;;;;367.50;64.97;;;1.20;99.90;;;;;;5013381;28;20063;-74
2024/01/13 02:38:26;;;;;;;343.60;59.70;;;1.20;99.90;;;;;;5025030;28;20155;-75
2024/01/13 02:41:02;;;;;;;283.15;54.65;;;1.20;99.90;;;;;;5023895;28;20076;-75
2024/01/13 02:43:28;;;;;;;367.35;64.95;;;1.20;99.90;;;;;;5002653;28;20041;-74
2024/01/13 02:45:55;;;;;;;333.60;59.75;;;1.30;99.90;;;;;;5019124;28;20074;-78
2024/01/13 02:48:22;;;;;;;191.07;44.63;;;1.30;99.90;;;;;;4999618;28;20064;-78
2024/01/13 02:51:06;;;;;;;346.15;60.38;;;1.20;99.90;;;;;;5005050;28;20139;-77
2024/01/13 02:53:33;;;;;;;431.25;73.60;;;1.20;99.90;;;;;;5025953;28;20507;-75
2024/01/13 02:56:00;;;;;;;311.13;57.85;;;1.20;99.90;;;;;;5016522;28;20516;-78
2024/01/13 02:58:27;;;;;;;315.98;60.00;;;1.20;99.90;;;;;;5011829;28;20047;-78
2024/01/13 03:01:08;;;;;;;490.35;73.90;;;1.20;99.90;;;;;;4993023;28;21162;-76
2024/01/13 03:03:36;;;;;;;473.73;76.28;;;1.30;99.90;;;;;;4987697;28;20049;-74
2024/01/13 03:06:05;;;;;;;337.50;58.70;;;1.30;99.90;;;;;;5003921;28;20437;-76
2024/01/13 03:08:32;;;;;;;277.00;50.88;;;1.30;99.90;;;;;;4995256;28;20057;-76
2024/01/13 03:11:11;;;;;;;;;;;1.20;99.90;;;;;;5011461;28;20767;-75
2024/01/13 03:13:38;;;;;;;283.27;51.15;;;1.20;99.90;;;;;;5018647;28;19928;-74
2024/01/13 03:16:06;;;;;;;316.55;53.83;;;1.20;99.90;;;;;;5020946;28;21089;-76
2024/01/13 03:18:33;;;;;;;278.55;53.05;;;1.20;99.90;;;;;;5027993;28;20033;-74
2024/01/13 03:21:08;;;;;;;284.27;53.30;;;1.20;99.90;;;;;;5009079;28;20562;-75
2024/01/13 03:23:35;;;;;;;274.42;54.65;;;1.20;99.90;;;;;;5000263;28;20045;-74
2024/01/13 03:26:02;;;;;;;284.35;51.05;;;1.30;99.90;;;;;;5022284;28;20055;-76
2024/01/13 03:28:29;;;;;;;296.30;55.55;;;1.20;99.90;;;;;;5016442;28;20096;-76
2024/01/13 03:31:08;;;;;;;293.48;53.88;;;1.30;99.90;;;;;;5020611;28;20054;-74
2024/01/13 03:33:35;;;;;;;291.98;54.42;;;1.30;99.90;;;;;;5017262;28;20042;-76
2024/01/13 03:36:02;;;;;;;282.65;55.47;;;1.30;99.90;;;;;;5019632;28;21157;-76
2024/01/13 03:38:29;;;;;;;307.50;55.13;;;1.30;99.90;;;;;;5002714;28;20535;-76
2024/01/13 03:41:08;;;;;;;405.55;60.38;;;1.30;99.90;;;;;;5010222;28;21504;-75
2024/01/13 03:43:35;;;;;;;531.15;74.93;;;1.30;99.90;;;;;;5002518;28;20067;-74
2024/01/13 03:46:03;;;;;;;447.33;70.72;;;1.30;99.90;;;;;;5012622;28;20041;-74
2024/01/13 03:48:29;;;;;;;543.47;83.65;;;1.30;99.90;;;;;;5025330;28;20045;-75
2024/01/13 03:50:56;;;;;;;393.23;65.40;;;1.30;99.90;;;;;;5018795;28;20657;-75
2024/01/13 03:53:23;;;;;;;257.17;52.08;;;1.30;99.90;;;;;;5021510;28;20124;-75
2024/01/13 03:55:50;;;;;;;265.38;51.72;;;1.30;99.90;;;;;;4999593;28;20044;-74
2024/01/13 03:58:17;;;;;;;252.98;57.03;;;1.30;99.90;;;;;;5015953;28;20048;-76
2024/01/13 04:00:44;;;;;;;192.65;42.95;;;1.30;99.90;;;;;;5015206;28;20562;-76
2024/01/13 04:03:11;;;;;;;177.88;38.70;;;1.20;99.90;;;;;;4998507;28;20049;-77
2024/01/13 04:05:38;;;;;;;189.15;41.35;;;1.20;99.90;;;;;;5027186;28;20049;-77
2024/01/13 04:08:05;;;;;;;194.52;42.58;;;1.20;99.90;;;;;;5031137;28;20041;-76
2024/01/13 04:10:31;;;;;;;198.02;50.45;;;1.20;99.90;;;;;;5016552;28;20041;-75
2024/01/13 04:13:00;;;;;;;182.75;43.83;;;1.20;99.90;;;;;;5011158;28;20846;-77
2024/01/13 04:15:26;;;;;;;228.50;48.97;;;1.20;99.90;;;;;;5025055;28;20048;-78
2024/01/13 04:17:53;;;;;;;191.63;44.38;;;1.20;99.90;;;;;;5044915;28;20732;-77
2024/01/13 04:20:21;;;;;;;207.80;48.85;;;1.20;99.90;;;;;;5011981;28;20053;-77
2024/01/13 04:22:48;;;;;;;219.45;44.97;;;1.30;99.90;;;;;;5020494;28;20060;-71
2024/01/13 04:25:15;;;;;;;217.45;47.72;;;1.30;99.90;;;;;;5012544;28;20458;-75
2024/01/13 04:27:42;;;;;;;233.60;50.75;;;1.20;99.90;;;;;;5030097;28;20140;-74
2024/01/13 04:30:09;;;;;;;201.85;41.80;;;1.20;99.90;;;;;;5014553;28;20819;-75
2024/01/13 04:32:36;;;;;;;171.73;39.13;;;1.30;99.90;;;;;;5007335;28;20727;-73
2024/01/13 04:35:04;;;;;;;183.93;44.65;;;1.20;99.90;;;;;;5022425;28;20625;-75
2024/01/13 04:37:30;;;;;;;195.18;44.38;;;1.30;99.90;;;;;;5026223;28;20060;-74
2024/01/13 04:39:57;;;;;;;160.05;39.17;;;1.20;99.90;;;;;;5031953;28;20048;-75
2024/01/13 04:42:25;;;;;;;182.55;43.83;;;1.30;99.90;;;;;;5034194;28;20052;-74
2024/01/13 04:44:52;;;;;;;224.93;50.88;;;1.20;99.90;;;;;;5026215;28;20427;-75
2024/01/13 04:47:18;;;;;;;210.93;45.92;;;1.20;99.90;;;;;;5031902;28;20534;-75
2024/01/13 04:49:45;;;;;;;167.60;40.08;;;1.30;99.90;;;;;;5028043;28;20683;-74
2024/01/13 04:52:12;;;;;;;152.18;37.20;;;1.20;99.90;;;;;;5021931;28;20042;-75
2024/01/13 04:54:39;;;;;;;135.70;34.13;;;1.30;99.90;;;;;;5041666;28;20052;-74
2024/01/13 04:57:06;;;;;;;168.07;43.00;;;1.20;99.90;;;;;;5043841;28;20923;-74
2024/01/13 04:59:33;;;;;;;168.02;38.15;;;1.20;99.90;;;;;;5031525;28;20041;-73
2024/01/13 05:02:00;;;;;;;211.75;47.40;;;1.30;99.90;;;;;;5056366;28;20044;-74
2024/01/13 05:04:26;;;;;;;254.45;51.97;;;1.30;99.90;;;;;;5054767;28;20044;-74
2024/01/13 05:06:54;;;;;;;287.50;55.60;;;1.30;99.90;;;;;;5033442;28;20050;-74
2024/01/13 05:09:21;;;;;;;269.75;56.70;;;1.30;99.90;;;;;;5033612;28;20324;-76
2024/01/13 05:11:48;;;;;;;271.88;54.53;;;1.30;99.90;;;;;;4998723;28;20049;-75
2024/01/13 05:14:16;;;;;;;285.33;54.10;;;1.30;99.90;;;;;;5038885;28;20044;-76
2024/01/13 05:16:43;;;;;;;298.85;55.65;;;1.30;99.90;;;;;;5027122;28;20060;-75
2024/01/13 05:19:09;;;;;;;261.85;51.20;;;1.30;99.90;;;;;;5036087;28;20052;-75
2024/01/13 05:21:36;;;;;;;346.60;61.25;;;1.30;99.90;;;;;;5029301;28;20050;-76
2024/01/13 05:24:03;;;;;;;283.67;56.08;;;1.30;99.90;;;;;;5009662;28;20664;-74
2024/01/13 05:26:30;;;;;;;219.82;52.78;;;1.30;99.90;;;;;;5030121;28;20056;-75
2024/01/13 05:28:58;;;;;;;282.85;57.95;;;1.30;99.90;;;;;;5011799;28;20136;-76
2024/01/13 05:31:24;;;;;;;253.32;55.47;;;1.20;99.90;;;;;;5026708;28;20045;-76
2024/01/13 05:33:51;;;;;;;246.57;53.30;;;1.20;99.90;;;;;;5008251;28;20052;-74
2024/01/13 05:36:21;;;;;;;263.42;56.25;;;1.20;99.90;;;;;;5032652;28;20651;-76
2024/01/13 05:38:47;;;;;;;307.75;59.35;;;1.20;99.90;;;;;;5001452;28;20037;-76
2024/01/13 05:41:14;;;;;;;262.42;56.67;;;1.20;99.90;;;;;;5022570;28;20033;-75
2024/01/13 05:43:41;;;;;;;232.82;50.58;;;1.20;99.90;;;;;;5009832;28;20054;-76
2024/01/13 05:46:11;;;;;;;247.00;50.88;;;1.30;99.90;;;;;;5010738;28;20049;-75
2024/01/13 05:48:38;;;;;;;218.45;49.35;;;1.30;99.90;;;;;;5026137;28;20048;-76
2024/01/13 05:51:07;;;;;;;235.73;48.97;;;1.30;99.90;;;;;;5026132;28;20446;-76
2024/01/13 05:53:34;;;;;;;178.02;43.95;;;1.30;99.90;;;;;;5002731;28;20036;-74
2024/01/13 05:56:01;;;;;;;225.63;50.90;;;1.30;99.90;;;;;;5025333;28;20500;-77
2024/01/13 05:58:28;;;;;;;214.57;48.03;;;1.30;99.90;;;;;;5035625;28;20040;-76
2024/01/13 06:00:55;;;;;;;201.93;51.35;;;1.30;99.90;;;;;;5014147;28;20045;-77
2024/01/13 06:03:21;;;;;;;199.02;47.10;;;1.30;99.90;;;;;;5010973;28;20523;-76
2024/01/13 06:05:48;;;;;;;155.20;39.60;;;1.30;99.90;;;;;;5028307;28;20060;-76
2024/01/13 06:08:15;;;;;;;191.75;40.85;;;1.30;99.90;;;;;;5012729;28;20048;-76
2024/01/13 06:10:42;;;;;;;192.02;43.85;;;1.30;99.90;;;;;;5012301;28;20648;-76
2024/01/13 06:13:09;;;;;;;193.35;45.80;;;1.30;99.90;;;;;;5011321;28;20820;-77
2024/01/13 06:15:39;;;;;;;244.02;51.58;;;1.30;99.90;;;;;;5011980;28;20037;-76
2024/01/13 06:18:09;;;;;;;295.98;61.38;;;1.30;99.90;;;;;;5015534;28;20049;-75
2024/01/13 06:20:36;;;;;;;237.93;52.15;;;1.30;99.90;;;;;;5006637;28;20073;-76
2024/01/13 06:23:05;;;;;;;230.68;53.08;;;1.30;99.90;;;;;;4995855;28;20057;-76
2024/01/13 06:25:32;;;;;;;241.00;53.40;;;1.30;99.90;;;;;;4997182;28;20052;-77
2024/01/13 06:27:59;;;;;;;214.23;50.60;;;1.30;99.90;;;;;;5000687;28;20041;-76
2024/01/13 06:30:26;;;;;;;234.32;52.85;;;1.30;99.90;;;;;;5018336;28;20053;-76
2024/01/13 06:32:52;;;;;;;257.45;57.33;;;1.20;99.90;;;;;;5031576;28;20562;-74
2024/01/13 06:35:20;;;;;;;227.10;52.45;;;1.30;99.90;;;;;;5025095;28;20127;-76
2024/01/13 06:37:46;;;;;;;277.15;65.32;;;1.30;99.90;;;;;;5013235;28;20061;-76
2024/01/13 06:40:15;;;;;;;308.67;67.68;;;1.30;99.90;;;;;;4995000;28;20053;-76
2024/01/13 06:42:42;;;;;;;227.63;54.40;;;1.30;99.90;;;;;;5018491;28;20048;-76
2024/01/13 06:45:09;;;;;;;219.27;54.45;;;1.30;99.90;;;;;;5029781;28;20067;-76
2024/01/13 06:47:36;;;;;;;237.77;59.22;;;1.30;99.90;;;;;;5028650;28;20117;-76
2024/01/13 06:50:03;;;;;;;207.95;56.63;;;1.30;99.90;;;;;;5003119;28;20919;-76
2024/01/13 06:52:30;;;;;;;216.60;58.03;;;1.30;99.90;;;;;;5019604;28;20037;-77
2024/01/13 06:54:58;;;;;;;229.50;60.50;;;1.20;99.90;;;;;;5022633;28;20052;-77
2024/01/13 06:57:25;;;;;;;213.68;57.25;;;1.30;99.90;;;;;;5007106;28;20049;-76
2024/01/13 06:59:52;;;;;;;235.45;64.35;;;1.30;99.90;;;;;;5005851;28;20049;-75
2024/01/13 07:02:19;;;;;;;245.52;64.75;;;1.30;99.90;;;;;;5008852;28;20065;-76
2024/01/13 07:04:50;;;;;;;210.80;58.60;;;1.30;99.90;;;;;;5003159;28;20067;-75
2024/01/13 07:07:16;;;;;;;226.88;65.88;;;1.30;99.90;;;;;;5000826;28;20045;-76
2024/01/13 07:09:43;;;;;;;241.27;65.70;;;1.30;99.90;;;;;;5019545;28;20041;-76
2024/01/13 07:12:10;;;;;;;190.98;54.00;;;1.30;99.90;;;;;;5030445;28;20045;-75
2024/01/13 07:14:37;;;;;;;227.75;67.00;;;1.30;99.90;;;;;;4998720;28;20051;-77
2024/01/13 07:17:04;;;;;;;220.75;67.68;;;1.30;99.90;;;;;;5028258;28;20133;-76
2024/01/13 07:19:30;;;;;;;246.90;70.82;;;1.30;99.90;;;;;;5017578;28;20313;-76
2024/01/13 07:21:58;;;;;;;218.35;60.90;;;1.30;99.90;;;;;;4997545;28;20872;-77
2024/01/13 07:24:25;;;;;;;223.20;65.32;;;1.30;99.90;;;;;;4998214;28;20135;-76
2024/01/13 07:26:52;;;;;;;219.55;62.63;;;1.30;99.90;;;;;;5033639;28;20072;-75
2024/01/13 07:29:20;;;;;;;190.00;59.10;;;1.30;99.90;;;;;;5039076;28;20071;-76
2024/01/13 07:31:46;;;;;;;194.95;62.95;;;1.30;99.90;;;;;;5033807;28;20047;-75
2024/01/13 07:34:13;;;;;;;210.07;62.67;;;1.30;99.90;;;;;;5035480;28;20082;-76
2024/01/13 07:36:40;;;;;;;155.95;48.13;;;1.30;99.90;;;;;;5030602;28;20148;-76
2024/01/13 07:39:09;;;;;;;190.05;60.67;;;1.30;99.90;;;;;;5033494;28;20048;-76
2024/01/13 07:41:36;;;;;;;178.10;57.55;;;1.30;99.90;;;;;;5034253;28;20696;-76
2024/01/13 07:44:07;;;;;;;175.13;54.78;;;1.30;99.90;;;;;;5024884;28;21287;-75
2024/01/13 07:46:40;;;;;;;171.38;52.85;;;1.30;99.90;;;;;;5050373;28;20522;-77
2024/01/13 07:49:07;;;;;;;161.52;53.33;;;1.30;99.90;;;;;;5007942;28;20429;-75
2024/01/13 07:51:35;;;;;;;176.07;52.45;;;1.30;99.90;;;;;;5028831;28;20047;-76
2024/01/13 07:54:02;;;;;;;163.40;53.03;;;1.30;99.90;;;;;;5029172;28;20057;-74
2024/01/13 07:56:29;;;;;;;170.90;48.65;;;1.30;99.90;;;;;;5033773;28;20090;-76
2024/01/13 07:58:56;;;;;;;172.05;52.47;;;1.30;99.90;;;;;;5033815;28;20050;-76
2024/01/13 08:01:23;;;;;;;174.63;53.33;;;1.30;99.90;;;;;;5031773;28;20616;-75
2024/01/13 08:04:04;;;;;;;165.95;52.25;;;1.40;99.90;;;;;;5027576;28;20542;-74
2024/01/13 08:06:31;;;;;;;162.18;53.47;;;1.40;99.90;;;;;;5035693;28;20041;-75
2024/01/13 08:08:58;;;;;;;166.98;51.75;;;1.40;99.90;;;;;;5033298;28;20078;-75
2024/01/13 08:11:25;;;;;;;181.32;53.38;;;1.40;99.90;;;;;;5035627;28;20774;-75
2024/01/13 08:14:03;;;;;;;153.77;49.47;;;1.40;99.90;;;;;;5048175;28;20029;-74
2024/01/13 08:16:31;;;;;;;146.63;44.58;;;1.40;99.90;;;;;;5066821;28;20044;-73
2024/01/13 08:19:00;;;;;;;158.40;46.72;;;1.30;99.90;;;;;;5029462;28;20033;-76
2024/01/13 08:21:28;;;;;;;125.75;37.42;;;1.40;99.90;;;;;;5037514;28;20072;-75
2024/01/13 08:24:06;;;;;;;126.53;37.13;;;1.40;99.90;;;;;;5010373;28;20124;-75
2024/01/13 08:26:35;;;;;;;136.15;39.47;;;1.40;99.90;;;;;;5026406;28;20052;-75
2024/01/13 08:29:02;;;;;;;138.68;38.30;;;1.40;99.90;;;;;;5024384;28;20635;-76
2024/01/13 08:31:29;;;;;;;148.57;39.45;;;1.40;99.90;;;;;;5019121;28;20107;-77
2024/01/13 08:34:07;;;;;;;123.57;35.65;;;1.40;99.90;;;;;;5018915;28;20969;-75
2024/01/13 09:05:57;;;;;;;117.38;34.50;;;1.50;99.90;;;;;;5024731;28;20120;-75
2024/01/13 09:08:24;;;;;;;102.80;31.92;;;1.50;99.90;;;;;;5018753;28;20049;-77
2024/01/13 09:10:50;;;;;;;90.00;29.55;;;1.50;99.90;;;;;;5027371;28;20057;-75
2024/01/13 09:13:17;;;;;;;99.07;29.85;;;1.50;99.90;;;;;;5025088;28;20045;-75
2024/01/13 09:15:47;;;;;;;101.50;30.60;;;1.50;99.90;;;;;;5023007;28;20049;-76
2024/01/13 09:18:14;;;;;;;118.40;36.80;;;1.50;99.90;;;;;;5014962;28;20050;-75
2024/01/13 09:20:41;;;;;;;140.82;46.08;;;1.50;99.90;;;;;;5025327;28;20045;-77
2024/01/13 09:23:08;;;;;;;120.97;42.50;;;1.50;99.90;;;;;;5021872;28;20050;-76
2024/01/13 09:25:35;;;;;;;136.30;47.08;;;1.50;99.90;;;;;;5027284;28;20068;-75
2024/01/13 09:28:02;;;;;;;137.57;48.67;;;1.60;99.90;;;;;;5026065;28;20049;-77
2024/01/13 09:30:29;;;;;;;140.75;49.15;;;1.60;99.90;;;;;;5021928;28;20071;-74
2024/01/13 09:32:57;;;;;;;128.60;48.40;;;1.50;99.90;;;;;;5023566;28;20077;-76
2024/01/13 09:35:24;;;;;;;158.95;50.65;;;1.60;99.90;;;;;;5007015;28;20048;-74
2024/01/13 09:37:52;;;;;;;144.13;50.08;;;1.60;99.90;;;;;;5005467;28;20036;-76
2024/01/13 09:40:19;;;;;;;111.80;40.47;;;1.50;99.90;;;;;;5026022;28;20770;-76
2024/01/13 09:42:53;;;;;;;147.18;49.30;;;1.60;99.90;;;;;;5029650;28;20047;-76
2024/01/13 09:45:21;;;;;;;131.33;47.57;;;1.60;99.90;;;;;;5019567;28;20049;-73
2024/01/13 09:47:48;;;;;;;116.60;43.63;;;1.60;99.90;;;;;;5024694;28;20728;-74
2024/01/13 09:50:15;;;;;;;137.23;50.55;;;1.60;99.90;;;;;;5008120;28;20033;-73
2024/01/13 09:52:44;;;;;;;126.07;44.72;;;1.60;99.90;;;;;;4997992;28;20049;-75
2024/01/13 09:55:14;;;;;;;124.03;42.65;;;1.60;99.90;;;;;;5018668;28;20045;-75
2024/01/13 09:57:41;;;;;;;116.22;39.80;;;1.70;99.90;;;;;;5007631;28;20511;-75
2024/01/13 10:00:09;;;;;;;125.45;41.20;;;1.70;99.90;;;;;;5015003;28;20621;-75
2024/01/13 10:02:36;;;;;;;145.95;50.00;;;1.60;99.90;;;;;;5020734;28;20041;-75
2024/01/13 10:05:04;;;;;;;157.68;51.70;;;1.70;99.90;;;;;;4998987;28;20128;-75
2024/01/13 10:07:35;;;;;;;96.97;36.72;;;1.60;99.90;;;;;;5014330;28;20057;-77
2024/01/13 10:10:06;;;;;;;136.93;48.75;;;1.60;99.90;;;;;;5032488;28;20052;-77
2024/01/13 10:12:38;;;;;;;126.43;41.70;;;1.60;99.90;;;;;;5030687;28;20037;-76
2024/01/13 10:15:15;;;;;;;141.50;49.50;;;1.60;99.90;;;;;;5007495;28;20880;-77
2024/01/13 10:17:43;;;;;;;165.80;53.67;;;1.60;99.90;;;;;;5025509;28;20094;-78
2024/01/13 10:20:13;;;;;;;139.50;50.45;;;1.60;99.90;;;;;;5019940;28;20104;-76
2024/01/13 10:22:42;;;;;;;185.65;57.10;;;1.60;99.90;;;;;;5020697;28;20049;-76
2024/01/13 10:25:09;;;;;;;181.60;59.80;;;1.60;99.90;;;;;;5016556;28;20041;-74
2024/01/13 10:27:38;;;;;;;177.98;57.90;;;1.60;99.90;;;;;;5024434;28;20061;-76
2024/01/13 10:30:07;;;;;;;166.57;54.97;;;1.60;99.90;;;;;;4995196;28;20053;-76
2024/01/13 10:32:34;;;;;;;156.50;53.15;;;1.60;99.90;;;;;;5018712;28;20049;-77
2024/01/13 10:35:01;;;;;;;174.18;58.67;;;1.60;99.90;;;;;;5019915;28;20060;-79
2024/01/13 10:37:30;;;;;;;186.10;59.33;;;1.60;99.90;;;;;;5007221;28;20115;-76
2024/01/13 10:39:57;;;;;;;148.75;52.28;;;1.60;99.90;;;;;;5029330;28;20113;-76
2024/01/13 10:42:26;;;;;;;185.13;60.15;;;1.60;99.90;;;;;;5027759;28;20052;-78
2024/01/13 10:45:00;;;;;;;177.13;63.30;;;1.60;99.90;;;;;;5006980;28;20132;-77
2024/01/13 10:47:32;;;;;;;192.70;64.38;;;1.60;99.90;;;;;;5024168;28;20099;-78
2024/01/13 10:49:59;;;;;;;145.10;51.95;;;1.60;99.90;;;;;;5027596;28;20069;-78
2024/01/13 10:52:43;;;;;;;178.77;59.15;;;1.60;99.90;;;;;;5008498;28;20072;-78
2024/01/13 10:55:11;;;;;;;129.90;49.95;;;1.60;99.90;;;;;;5013454;28;20048;-78
2024/01/13 10:57:38;;;;;;;158.65;58.47;;;1.60;99.90;;;;;;5030306;28;20044;-78
2024/01/13 11:00:10;;;;;;;171.60;59.13;;;1.60;99.90;;;;;;5006055;28;20052;-78
2024/01/13 11:02:38;;;;;;;172.25;60.35;;;1.70;99.90;;;;;;5021443;28;20096;-79
2024/01/13 11:05:06;;;;;;;181.85;61.60;;;1.70;99.90;;;;;;5005587;28;20049;-79
2024/01/13 11:07:33;;;;;;;132.73;50.53;;;1.70;99.90;;;;;;5010844;28;20734;-82
2024/01/13 11:10:04;;;;;;;173.93;62.50;;;1.70;99.90;;;;;;5017937;28;20069;-78
2024/01/13 11:12:39;;;;;;;150.18;51.67;;;1.80;99.90;;;;;;5028063;28;20087;-77
2024/01/13 11:15:18;;;;;;;160.93;53.28;;;1.80;99.90;;;;;;5013567;28;20049;-77
2024/01/13 11:17:46;;;;;;;173.00;57.90;;;1.70;99.90;;;;;;5024690;28;20056;-78
2024/01/13 11:20:17;;;;;;;144.18;53.15;;;1.70;99.90;;;;;;5015164;28;20072;-79
2024/01/13 11:22:56;;;;;;;177.15;56.85;;;1.70;99.90;;;;;;5016257;28;20045;-78
2024/01/13 11:25:27;;;;;;;142.20;49.63;;;1.70;99.90;;;;;;5019922;28;20046;-77
2024/01/13 11:27:58;;;;;;;178.35;60.45;;;1.70;99.90;;;;;;5008165;28;20041;-80
2024/01/13 11:30:40;;;;;;;138.30;48.15;;;1.70;99.90;;;;;;5020669;28;20048;-80
2024/01/13 11:33:13;;;;;;;158.77;52.83;;;1.70;99.90;;;;;;5053227;28;20229;-79
2024/01/13 11:35:46;;;;;;;190.45;55.83;;;1.70;99.90;;;;;;5062000;28;20033;-79
2024/01/13 11:38:14;;;;;;;185.70;61.47;;;1.80;99.90;;;;;;5016242;28;20107;-78
2024/01/13 11:40:46;;;;;;;148.07;52.33;;;1.80;99.90;;;;;;5011795;28;20072;-81
2024/01/13 11:43:23;;;;;;;170.00;52.47;;;1.80;99.90;;;;;;5016062;28;20053;-80
2024/01/13 11:45:51;;;;;;;150.55;50.58;;;1.80;99.90;;;;;;5013204;28;20723;-79
2024/01/13 11:48:29;;;;;;;123.82;44.55;;;1.80;99.90;;;;;;5021992;28;20048;-80
2024/01/13 11:50:57;;;;;;;136.02;45.60;;;1.80;99.90;;;;;;5023891;28;20101;-80
2024/01/13 11:53:42;;;;;;;134.63;49.40;;;1.80;99.90;;;;;;5022869;28;20040;-81
2024/01/13 11:56:11;;;;;;;136.18;45.10;;;1.80;99.90;;;;;;5026299;28;20045;-82
2024/01/13 11:58:39;;;;;;;134.52;47.22;;;1.80;99.90;;;;;;5014206;28;20053;-82
2024/01/13 12:01:08;;;;;;;136.23;45.00;;;1.80;99.90;;;;;;5025634;28;20041;-81
2024/01/13 12:03:38;;;;;;;149.57;51.10;;;1.80;99.90;;;;;;5020130;28;20053;-80
2024/01/13 12:06:08;;;;;;;140.00;49.10;;;1.80;99.90;;;;;;5005046;28;20128;-79
2024/01/13 12:08:35;;;;;;;139.90;48.10;;;1.90;99.90;;;;;;5028870;28;20049;-80
2024/01/13 12:11:04;;;;;;;118.65;41.88;;;1.80;99.90;;;;;;5030221;28;20737;-79
2024/01/13 12:13:32;;;;;;;133.82;45.63;;;1.80;99.90;;;;;;5015021;28;20037;-79
2024/01/13 12:16:06;;;;;;;146.40;48.78;;;1.80;99.90;;;;;;5022373;28;20284;-78
2024/01/13 12:18:33;;;;;;;;;;;1.80;99.90;;;;;;5019967;28;20047;-77
2024/01/13 12:21:02;;;;;;;159.18;51.63;;;1.80;99.90;;;;;;5010638;28;20022;-77
2024/01/13 12:23:30;;;;;;;136.43;46.47;;;1.80;99.90;;;;;;5025323;28;20061;-79
2024/01/13 12:25:56;;;;;;;103.07;40.47;;;1.80;99.90;;;;;;5020927;28;20049;-75
2024/01/13 12:28:37;;;;;;;112.75;40.05;;;1.80;99.90;;;;;;5009074;28;21838;-77
2024/01/13 12:31:05;;;;;;;132.40;47.53;;;1.80;99.90;;;;;;5015472;28;20073;-75
2024/01/13 12:33:32;;;;;;;112.65;41.72;;;1.80;99.90;;;;;;5027600;28;20568;-76
2024/01/13 12:36:08;;;;;;;157.02;50.60;;;1.90;99.90;;;;;;5018007;28;20041;-76
2024/01/13 12:38:36;;;;;;;160.52;50.60;;;1.80;99.90;;;;;;5004343;28;20047;-79
2024/01/13 12:41:04;;;;;;;132.13;45.85;;;1.80;99.90;;;;;;4979759;28;20056;-75
2024/01/13 12:43:31;;;;;;;112.25;42.47;;;1.80;99.90;;;;;;5007335;28;20080;-75
2024/01/13 12:46:02;;;;;;;191.48;55.50;;;1.80;99.90;;;;;;5024074;28;20153;-75
2024/01/13 12:48:29;;;;;;;150.30;54.70;;;1.80;99.90;;;;;;5020421;28;20044;-75
2024/01/13 12:51:11;;;;;;;153.63;52.80;;;1.80;99.90;;;;;;5020377;28;20148;-77
2024/01/13 12:53:40;;;;;;;150.65;51.58;;;1.80;99.90;;;;;;5016965;28;21688;-76
2024/01/13 12:56:08;;;;;;;142.52;47.60;;;1.80;99.90;;;;;;5017929;28;20046;-75
2024/01/13 12:58:35;;;;;;;174.93;59.63;;;1.70;99.90;;;;;;5024876;28;20048;-77
2024/01/13 13:01:05;;;;;;;137.65;46.38;;;1.70;99.90;;;;;;5025319;28;20048;-76